sensor_id;sensor_type;location;lat;lon;timestamp;P1;durP1;ratioP1;P2;durP2;ratioP2
4430;SDS011;2228;48.140;11.488;2023-06-05T00:02:11;7.80;;;5.38;;
4430;SDS011;2228;48.140;11.488;2023-06-05T00:04:38;9.40;;;5.80;;
4430;SDS011;2228;48.140;11.488;2023-06-05T00:07:07;7.00;;;5.10;;
4430;SDS011;2228;48.140;11.488;2023-06-05T00:09:34;7.53;;;4.95;;
4430;SDS011;2228;48.140;11.488;2023-06-05T00:12:01;8.70;;;5.28;;
4430;SDS011;2228;48.140;11.488;2023-06-05T00:14:28;7.40;;;5.22;;
4430;SDS011;2228;48.140;11.488;2023-06-05T00:16:55;8.20;;;5.05;;
4430;SDS011;2228;48.140;11.488;2023-06-05T00:19:22;8.75;;;5.22;;
4430;SDS011;2228;48.140;11.488;2023-06-05T00:21:49;6.90;;;5.20;;
4430;SDS011;2228;48.140;11.488;2023-06-05T00:24:19;8.40;;;5.60;;
4430;SDS011;2228;48.140;11.488;2023-06-05T00:26:46;7.20;;;4.85;;
4430;SDS011;2228;48.140;11.488;2023-06-05T00:29:13;8.05;;;4.95;;
4430;SDS011;2228;48.140;11.488;2023-06-05T00:31:40;11.23;;;5.80;;
4430;SDS011;2228;48.140;11.488;2023-06-05T00:34:08;6.65;;;5.03;;
4430;SDS011;2228;48.140;11.488;2023-06-05T00:36:35;7.47;;;5.30;;
4430;SDS011;2228;48.140;11.488;2023-06-05T00:39:05;8.67;;;5.70;;
4430;SDS011;2228;48.140;11.488;2023-06-05T00:41:34;8.65;;;5.70;;
4430;SDS011;2228;48.140;11.488;2023-06-05T00:44:02;9.07;;;5.90;;
4430;SDS011;2228;48.140;11.488;2023-06-05T00:46:29;8.00;;;5.60;;
4430;SDS011;2228;48.140;11.488;2023-06-05T00:48:56;8.55;;;5.85;;
4430;SDS011;2228;48.140;11.488;2023-06-05T00:51:24;9.83;;;5.60;;
4430;SDS011;2228;48.140;11.488;2023-06-05T00:53:51;8.82;;;6.45;;
4430;SDS011;2228;48.140;11.488;2023-06-05T00:56:18;9.00;;;6.00;;
4430;SDS011;2228;48.140;11.488;2023-06-05T00:58:47;9.10;;;6.00;;
4430;SDS011;2228;48.140;11.488;2023-06-05T01:01:14;8.23;;;6.50;;
4430;SDS011;2228;48.140;11.488;2023-06-05T01:03:42;15.77;;;6.45;;
4430;SDS011;2228;48.140;11.488;2023-06-05T01:06:10;10.88;;;6.60;;
4430;SDS011;2228;48.140;11.488;2023-06-05T01:08:37;9.48;;;6.25;;
4430;SDS011;2228;48.140;11.488;2023-06-05T01:11:05;8.85;;;6.72;;
4430;SDS011;2228;48.140;11.488;2023-06-05T01:13:40;8.32;;;6.32;;
4430;SDS011;2228;48.140;11.488;2023-06-05T01:16:14;10.15;;;7.03;;
4430;SDS011;2228;48.140;11.488;2023-06-05T01:18:41;9.65;;;6.25;;
4430;SDS011;2228;48.140;11.488;2023-06-05T01:21:11;10.40;;;6.80;;
4430;SDS011;2228;48.140;11.488;2023-06-05T01:23:43;13.75;;;7.50;;
4430;SDS011;2228;48.140;11.488;2023-06-05T01:26:12;12.70;;;8.13;;
4430;SDS011;2228;48.140;11.488;2023-06-05T01:28:45;12.73;;;7.90;;
4430;SDS011;2228;48.140;11.488;2023-06-05T01:31:15;12.88;;;8.52;;
4430;SDS011;2228;48.140;11.488;2023-06-05T01:33:46;12.35;;;8.50;;
4430;SDS011;2228;48.140;11.488;2023-06-05T01:36:17;15.07;;;9.07;;
4430;SDS011;2228;48.140;11.488;2023-06-05T01:38:46;11.52;;;8.40;;
4430;SDS011;2228;48.140;11.488;2023-06-05T01:41:16;11.95;;;7.97;;
4430;SDS011;2228;48.140;11.488;2023-06-05T01:43:44;13.25;;;8.40;;
4430;SDS011;2228;48.140;11.488;2023-06-05T01:46:13;10.82;;;8.50;;
4430;SDS011;2228;48.140;11.488;2023-06-05T01:48:46;10.27;;;8.40;;
4430;SDS011;2228;48.140;11.488;2023-06-05T01:51:13;11.88;;;8.35;;
4430;SDS011;2228;48.140;11.488;2023-06-05T01:53:40;12.95;;;9.13;;
4430;SDS011;2228;48.140;11.488;2023-06-05T01:56:09;17.48;;;9.43;;
4430;SDS011;2228;48.140;11.488;2023-06-05T01:58:36;13.68;;;8.98;;
4430;SDS011;2228;48.140;11.488;2023-06-05T02:01:03;12.02;;;8.70;;
4430;SDS011;2228;48.140;11.488;2023-06-05T02:03:30;11.88;;;8.75;;
4430;SDS011;2228;48.140;11.488;2023-06-05T02:05:57;15.80;;;9.32;;
4430;SDS011;2228;48.140;11.488;2023-06-05T02:08:24;11.57;;;9.20;;
4430;SDS011;2228;48.140;11.488;2023-06-05T02:10:53;12.70;;;9.50;;
4430;SDS011;2228;48.140;11.488;2023-06-05T02:13:21;13.00;;;9.65;;
4430;SDS011;2228;48.140;11.488;2023-06-05T02:15:50;13.20;;;9.87;;
4430;SDS011;2228;48.140;11.488;2023-06-05T02:18:21;14.05;;;9.55;;
4430;SDS011;2228;48.140;11.488;2023-06-05T02:20:52;10.88;;;8.82;;
4430;SDS011;2228;48.140;11.488;2023-06-05T02:23:21;12.88;;;9.18;;
4430;SDS011;2228;48.140;11.488;2023-06-05T02:25:48;12.27;;;8.60;;
4430;SDS011;2228;48.140;11.488;2023-06-05T02:28:15;12.32;;;9.50;;
4430;SDS011;2228;48.140;11.488;2023-06-05T02:30:43;13.80;;;9.90;;
4430;SDS011;2228;48.140;11.488;2023-06-05T02:33:11;14.00;;;10.50;;
4430;SDS011;2228;48.140;11.488;2023-06-05T02:35:38;11.27;;;9.23;;
4430;SDS011;2228;48.140;11.488;2023-06-05T02:38:05;14.20;;;9.30;;
4430;SDS011;2228;48.140;11.488;2023-06-05T02:40:33;12.77;;;9.38;;
4430;SDS011;2228;48.140;11.488;2023-06-05T02:43:00;12.45;;;9.40;;
4430;SDS011;2228;48.140;11.488;2023-06-05T02:45:28;11.90;;;8.30;;
4430;SDS011;2228;48.140;11.488;2023-06-05T02:47:56;12.75;;;9.65;;
4430;SDS011;2228;48.140;11.488;2023-06-05T02:50:23;10.98;;;9.27;;
4430;SDS011;2228;48.140;11.488;2023-06-05T02:52:50;13.52;;;9.30;;
4430;SDS011;2228;48.140;11.488;2023-06-05T02:55:17;11.95;;;9.52;;
4430;SDS011;2228;48.140;11.488;2023-06-05T02:57:44;14.82;;;10.02;;
4430;SDS011;2228;48.140;11.488;2023-06-05T03:00:14;15.30;;;10.30;;
4430;SDS011;2228;48.140;11.488;2023-06-05T03:02:42;12.77;;;10.48;;
4430;SDS011;2228;48.140;11.488;2023-06-05T03:05:15;11.90;;;10.02;;
4430;SDS011;2228;48.140;11.488;2023-06-05T03:07:43;14.07;;;10.52;;
4430;SDS011;2228;48.140;11.488;2023-06-05T03:10:10;14.07;;;10.87;;
4430;SDS011;2228;48.140;11.488;2023-06-05T03:16:25;15.45;;;11.70;;
4430;SDS011;2228;48.140;11.488;2023-06-05T03:18:57;15.03;;;11.00;;
4430;SDS011;2228;48.140;11.488;2023-06-05T03:21:26;13.70;;;11.50;;
4430;SDS011;2228;48.140;11.488;2023-06-05T03:23:53;14.30;;;11.00;;
4430;SDS011;2228;48.140;11.488;2023-06-05T03:26:20;13.63;;;11.05;;
4430;SDS011;2228;48.140;11.488;2023-06-05T03:28:50;14.32;;;11.65;;
4430;SDS011;2228;48.140;11.488;2023-06-05T03:31:17;16.10;;;12.00;;
4430;SDS011;2228;48.140;11.488;2023-06-05T03:33:44;17.23;;;12.00;;
4430;SDS011;2228;48.140;11.488;2023-06-05T03:36:11;17.75;;;11.77;;
4430;SDS011;2228;48.140;11.488;2023-06-05T03:38:41;18.20;;;12.40;;
4430;SDS011;2228;48.140;11.488;2023-06-05T03:41:08;14.15;;;11.43;;
4430;SDS011;2228;48.140;11.488;2023-06-05T03:43:35;14.43;;;12.10;;
4430;SDS011;2228;48.140;11.488;2023-06-05T03:46:02;15.90;;;11.80;;
4430;SDS011;2228;48.140;11.488;2023-06-05T03:48:29;14.93;;;11.63;;
4430;SDS011;2228;48.140;11.488;2023-06-05T03:50:56;15.15;;;12.40;;
4430;SDS011;2228;48.140;11.488;2023-06-05T03:53:26;14.82;;;12.15;;
4430;SDS011;2228;48.140;11.488;2023-06-05T03:55:56;14.13;;;11.80;;
4430;SDS011;2228;48.140;11.488;2023-06-05T03:58:24;13.93;;;10.73;;
4430;SDS011;2228;48.140;11.488;2023-06-05T04:00:52;16.25;;;12.70;;
4430;SDS011;2228;48.140;11.488;2023-06-05T04:03:19;21.75;;;12.20;;
4430;SDS011;2228;48.140;11.488;2023-06-05T04:05:46;15.48;;;11.40;;
4430;SDS011;2228;48.140;11.488;2023-06-05T04:08:13;16.90;;;10.70;;
4430;SDS011;2228;48.140;11.488;2023-06-05T04:10:40;16.93;;;11.67;;
4430;SDS011;2228;48.140;11.488;2023-06-05T04:13:08;17.63;;;11.20;;
4430;SDS011;2228;48.140;11.488;2023-06-05T04:15:35;13.70;;;11.07;;
4430;SDS011;2228;48.140;11.488;2023-06-05T04:18:03;14.90;;;11.10;;
4430;SDS011;2228;48.140;11.488;2023-06-05T04:20:30;17.25;;;11.32;;
4430;SDS011;2228;48.140;11.488;2023-06-05T04:22:57;16.02;;;11.50;;
4430;SDS011;2228;48.140;11.488;2023-06-05T04:25:24;14.68;;;10.80;;
4430;SDS011;2228;48.140;11.488;2023-06-05T04:27:54;14.73;;;11.23;;
4430;SDS011;2228;48.140;11.488;2023-06-05T04:30:23;16.45;;;10.38;;
4430;SDS011;2228;48.140;11.488;2023-06-05T04:32:51;15.23;;;10.77;;
4430;SDS011;2228;48.140;11.488;2023-06-05T04:35:19;15.63;;;11.15;;
4430;SDS011;2228;48.140;11.488;2023-06-05T04:37:46;18.77;;;12.40;;
4430;SDS011;2228;48.140;11.488;2023-06-05T04:40:13;15.02;;;11.40;;
4430;SDS011;2228;48.140;11.488;2023-06-05T04:42:41;14.85;;;11.18;;
4430;SDS011;2228;48.140;11.488;2023-06-05T04:45:08;15.38;;;10.80;;
4430;SDS011;2228;48.140;11.488;2023-06-05T04:47:37;15.52;;;11.40;;
4430;SDS011;2228;48.140;11.488;2023-06-05T04:50:05;15.35;;;10.75;;
4430;SDS011;2228;48.140;11.488;2023-06-05T04:52:32;15.88;;;11.32;;
4430;SDS011;2228;48.140;11.488;2023-06-05T04:55:00;15.57;;;11.38;;
4430;SDS011;2228;48.140;11.488;2023-06-05T04:57:27;19.13;;;11.35;;
4430;SDS011;2228;48.140;11.488;2023-06-05T04:59:54;14.70;;;10.80;;
4430;SDS011;2228;48.140;11.488;2023-06-05T05:02:22;17.40;;;10.83;;
4430;SDS011;2228;48.140;11.488;2023-06-05T05:04:50;15.75;;;10.48;;
4430;SDS011;2228;48.140;11.488;2023-06-05T05:07:17;13.90;;;10.07;;
4430;SDS011;2228;48.140;11.488;2023-06-05T05:09:44;12.88;;;10.10;;
4430;SDS011;2228;48.140;11.488;2023-06-05T05:12:11;13.30;;;10.10;;
4430;SDS011;2228;48.140;11.488;2023-06-05T05:14:38;13.20;;;9.93;;
4430;SDS011;2228;48.140;11.488;2023-06-05T05:17:06;16.50;;;10.23;;
4430;SDS011;2228;48.140;11.488;2023-06-05T05:19:33;11.65;;;9.23;;
4430;SDS011;2228;48.140;11.488;2023-06-05T05:22:01;12.98;;;9.20;;
4430;SDS011;2228;48.140;11.488;2023-06-05T05:24:28;11.25;;;8.43;;
4430;SDS011;2228;48.140;11.488;2023-06-05T05:26:55;13.20;;;8.55;;
4430;SDS011;2228;48.140;11.488;2023-06-05T05:29:22;10.98;;;8.90;;
4430;SDS011;2228;48.140;11.488;2023-06-05T05:31:49;11.85;;;8.60;;
4430;SDS011;2228;48.140;11.488;2023-06-05T05:34:16;10.60;;;8.30;;
4430;SDS011;2228;48.140;11.488;2023-06-05T05:36:43;10.43;;;8.13;;
4430;SDS011;2228;48.140;11.488;2023-06-05T05:39:11;12.82;;;8.00;;
4430;SDS011;2228;48.140;11.488;2023-06-05T05:41:38;12.40;;;8.40;;
4430;SDS011;2228;48.140;11.488;2023-06-05T05:44:05;12.77;;;8.70;;
4430;SDS011;2228;48.140;11.488;2023-06-05T05:46:32;15.80;;;8.90;;
4430;SDS011;2228;48.140;11.488;2023-06-05T05:48:59;13.52;;;9.10;;
4430;SDS011;2228;48.140;11.488;2023-06-05T05:51:26;15.05;;;8.80;;
4430;SDS011;2228;48.140;11.488;2023-06-05T05:53:53;11.95;;;9.27;;
4430;SDS011;2228;48.140;11.488;2023-06-05T05:56:21;17.27;;;9.45;;
4430;SDS011;2228;48.140;11.488;2023-06-05T05:58:48;14.23;;;8.82;;
4430;SDS011;2228;48.140;11.488;2023-06-05T06:01:15;11.18;;;8.93;;
4430;SDS011;2228;48.140;11.488;2023-06-05T06:03:42;13.25;;;9.15;;
4430;SDS011;2228;48.140;11.488;2023-06-05T06:06:09;12.27;;;9.07;;
4430;SDS011;2228;48.140;11.488;2023-06-05T06:08:37;13.13;;;9.07;;
4430;SDS011;2228;48.140;11.488;2023-06-05T06:11:04;10.38;;;8.40;;
4430;SDS011;2228;48.140;11.488;2023-06-05T06:13:33;12.70;;;9.15;;
4430;SDS011;2228;48.140;11.488;2023-06-05T06:16:00;13.55;;;8.55;;
4430;SDS011;2228;48.140;11.488;2023-06-05T06:18:27;10.60;;;8.68;;
4430;SDS011;2228;48.140;11.488;2023-06-05T06:20:53;11.30;;;9.00;;
4430;SDS011;2228;48.140;11.488;2023-06-05T06:23:21;11.17;;;8.50;;
4430;SDS011;2228;48.140;11.488;2023-06-05T06:25:48;13.35;;;8.32;;
4430;SDS011;2228;48.140;11.488;2023-06-05T06:28:16;10.30;;;8.73;;
4430;SDS011;2228;48.140;11.488;2023-06-05T06:30:46;16.27;;;8.52;;
4430;SDS011;2228;48.140;11.488;2023-06-05T06:33:13;14.27;;;8.90;;
4430;SDS011;2228;48.140;11.488;2023-06-05T06:35:39;11.73;;;8.10;;
4430;SDS011;2228;48.140;11.488;2023-06-05T06:38:06;12.73;;;8.57;;
4430;SDS011;2228;48.140;11.488;2023-06-05T06:40:33;11.35;;;8.10;;
4430;SDS011;2228;48.140;11.488;2023-06-05T06:43:00;14.38;;;9.10;;
4430;SDS011;2228;48.140;11.488;2023-06-05T06:45:27;13.90;;;8.70;;
4430;SDS011;2228;48.140;11.488;2023-06-05T06:47:55;14.55;;;8.90;;
4430;SDS011;2228;48.140;11.488;2023-06-05T06:50:22;11.00;;;8.57;;
4430;SDS011;2228;48.140;11.488;2023-06-05T06:52:49;14.27;;;9.20;;
4430;SDS011;2228;48.140;11.488;2023-06-05T06:55:16;11.67;;;8.40;;
4430;SDS011;2228;48.140;11.488;2023-06-05T06:57:43;13.60;;;9.13;;
4430;SDS011;2228;48.140;11.488;2023-06-05T07:00:10;12.57;;;9.57;;
4430;SDS011;2228;48.140;11.488;2023-06-05T07:02:39;12.15;;;8.60;;
4430;SDS011;2228;48.140;11.488;2023-06-05T07:05:08;11.48;;;7.95;;
4430;SDS011;2228;48.140;11.488;2023-06-05T07:07:35;12.27;;;7.40;;
4430;SDS011;2228;48.140;11.488;2023-06-05T07:10:02;10.50;;;7.80;;
4430;SDS011;2228;48.140;11.488;2023-06-05T07:12:29;9.27;;;7.65;;
4430;SDS011;2228;48.140;11.488;2023-06-05T07:14:56;11.52;;;8.20;;
4430;SDS011;2228;48.140;11.488;2023-06-05T07:17:23;10.10;;;7.45;;
4430;SDS011;2228;48.140;11.488;2023-06-05T07:19:52;15.75;;;7.40;;
4430;SDS011;2228;48.140;11.488;2023-06-05T07:22:20;12.07;;;7.57;;
4430;SDS011;2228;48.140;11.488;2023-06-05T07:24:49;14.40;;;8.20;;
4430;SDS011;2228;48.140;11.488;2023-06-05T07:27:18;11.00;;;8.03;;
4430;SDS011;2228;48.140;11.488;2023-06-05T07:29:46;9.70;;;8.00;;
4430;SDS011;2228;48.140;11.488;2023-06-05T07:32:13;9.80;;;7.40;;
4430;SDS011;2228;48.140;11.488;2023-06-05T07:34:40;8.88;;;7.38;;
4430;SDS011;2228;48.140;11.488;2023-06-05T07:37:08;9.60;;;6.93;;
4430;SDS011;2228;48.140;11.488;2023-06-05T07:39:36;10.02;;;7.20;;
4430;SDS011;2228;48.140;11.488;2023-06-05T07:42:03;11.80;;;7.93;;
4430;SDS011;2228;48.140;11.488;2023-06-05T07:44:31;11.60;;;7.73;;
4430;SDS011;2228;48.140;11.488;2023-06-05T07:46:58;9.52;;;7.38;;
4430;SDS011;2228;48.140;11.488;2023-06-05T07:49:29;13.93;;;6.93;;
4430;SDS011;2228;48.140;11.488;2023-06-05T07:51:57;15.65;;;9.10;;
4430;SDS011;2228;48.140;11.488;2023-06-05T07:54:24;10.00;;;7.05;;
4430;SDS011;2228;48.140;11.488;2023-06-05T07:56:52;14.88;;;8.20;;
4430;SDS011;2228;48.140;11.488;2023-06-05T07:59:19;10.98;;;7.97;;
4430;SDS011;2228;48.140;11.488;2023-06-05T08:01:50;10.55;;;7.28;;
4430;SDS011;2228;48.140;11.488;2023-06-05T08:04:17;14.02;;;7.63;;
4430;SDS011;2228;48.140;11.488;2023-06-05T08:06:44;13.83;;;8.00;;
4430;SDS011;2228;48.140;11.488;2023-06-05T08:09:11;11.13;;;7.85;;
4430;SDS011;2228;48.140;11.488;2023-06-05T08:11:38;8.23;;;6.60;;
4430;SDS011;2228;48.140;11.488;2023-06-05T08:14:07;16.03;;;7.57;;
4430;SDS011;2228;48.140;11.488;2023-06-05T08:16:34;11.52;;;7.72;;
4430;SDS011;2228;48.140;11.488;2023-06-05T08:19:02;13.60;;;6.35;;
4430;SDS011;2228;48.140;11.488;2023-06-05T08:21:29;10.00;;;6.77;;
4430;SDS011;2228;48.140;11.488;2023-06-05T08:23:56;13.20;;;6.60;;
4430;SDS011;2228;48.140;11.488;2023-06-05T08:26:23;10.15;;;6.35;;
4430;SDS011;2228;48.140;11.488;2023-06-05T08:28:50;9.50;;;6.13;;
4430;SDS011;2228;48.140;11.488;2023-06-05T08:31:19;8.25;;;6.30;;
4430;SDS011;2228;48.140;11.488;2023-06-05T08:33:47;7.88;;;5.72;;
4430;SDS011;2228;48.140;11.488;2023-06-05T08:36:13;8.90;;;5.97;;
4430;SDS011;2228;48.140;11.488;2023-06-05T08:38:41;9.00;;;6.20;;
4430;SDS011;2228;48.140;11.488;2023-06-05T08:41:08;10.30;;;6.40;;
4430;SDS011;2228;48.140;11.488;2023-06-05T08:43:35;11.40;;;6.63;;
4430;SDS011;2228;48.140;11.488;2023-06-05T08:46:03;6.90;;;5.70;;
4430;SDS011;2228;48.140;11.488;2023-06-05T08:48:33;8.73;;;5.90;;
4430;SDS011;2228;48.140;11.488;2023-06-05T08:51:03;8.95;;;6.25;;
4430;SDS011;2228;48.140;11.488;2023-06-05T08:53:35;7.03;;;5.20;;
4430;SDS011;2228;48.140;11.488;2023-06-05T08:56:05;7.68;;;5.97;;
4430;SDS011;2228;48.140;11.488;2023-06-05T08:58:33;7.78;;;6.00;;
4430;SDS011;2228;48.140;11.488;2023-06-05T09:01:00;11.50;;;6.40;;
4430;SDS011;2228;48.140;11.488;2023-06-05T09:03:27;7.85;;;6.00;;
4430;SDS011;2228;48.140;11.488;2023-06-05T09:05:55;7.88;;;6.20;;
4430;SDS011;2228;48.140;11.488;2023-06-05T09:08:29;12.20;;;7.10;;
4430;SDS011;2228;48.140;11.488;2023-06-05T09:13:51;10.55;;;6.07;;
4430;SDS011;2228;48.140;11.488;2023-06-05T09:16:21;9.57;;;6.30;;
4430;SDS011;2228;48.140;11.488;2023-06-05T09:18:52;8.32;;;6.28;;
4430;SDS011;2228;48.140;11.488;2023-06-05T09:21:22;8.90;;;5.65;;
4430;SDS011;2228;48.140;11.488;2023-06-05T09:23:55;10.15;;;6.00;;
4430;SDS011;2228;48.140;11.488;2023-06-05T09:29:23;6.47;;;5.75;;
4430;SDS011;2228;48.140;11.488;2023-06-05T09:31:52;9.90;;;5.90;;
4430;SDS011;2228;48.140;11.488;2023-06-05T09:34:20;6.85;;;5.70;;
4430;SDS011;2228;48.140;11.488;2023-06-05T09:36:49;10.43;;;5.60;;
4430;SDS011;2228;48.140;11.488;2023-06-05T09:39:17;8.45;;;5.60;;
4430;SDS011;2228;48.140;11.488;2023-06-05T09:41:45;7.78;;;5.28;;
4430;SDS011;2228;48.140;11.488;2023-06-05T09:44:14;7.30;;;4.75;;
4430;SDS011;2228;48.140;11.488;2023-06-05T09:46:54;6.38;;;4.20;;
4430;SDS011;2228;48.140;11.488;2023-06-05T09:49:25;8.68;;;5.65;;
4430;SDS011;2228;48.140;11.488;2023-06-05T09:51:55;8.80;;;5.77;;
4430;SDS011;2228;48.140;11.488;2023-06-05T09:54:24;7.35;;;5.00;;
4430;SDS011;2228;48.140;11.488;2023-06-05T09:56:56;5.97;;;4.70;;
4430;SDS011;2228;48.140;11.488;2023-06-05T09:59:24;7.20;;;5.40;;
4430;SDS011;2228;48.140;11.488;2023-06-05T10:01:55;8.38;;;4.75;;
4430;SDS011;2228;48.140;11.488;2023-06-05T10:04:23;6.55;;;5.03;;
4430;SDS011;2228;48.140;11.488;2023-06-05T10:06:53;6.07;;;4.82;;
4430;SDS011;2228;48.140;11.488;2023-06-05T10:09:26;7.07;;;5.32;;
4430;SDS011;2228;48.140;11.488;2023-06-05T10:11:55;7.00;;;5.50;;
4430;SDS011;2228;48.140;11.488;2023-06-05T10:14:23;7.00;;;4.40;;
4430;SDS011;2228;48.140;11.488;2023-06-05T10:16:50;5.63;;;4.40;;
4430;SDS011;2228;48.140;11.488;2023-06-05T10:19:18;7.13;;;4.80;;
4430;SDS011;2228;48.140;11.488;2023-06-05T10:21:46;7.00;;;4.80;;
4430;SDS011;2228;48.140;11.488;2023-06-05T10:24:17;5.03;;;4.50;;
4430;SDS011;2228;48.140;11.488;2023-06-05T10:26:55;4.20;;;3.55;;
4430;SDS011;2228;48.140;11.488;2023-06-05T10:32:55;7.30;;;4.95;;
4430;SDS011;2228;48.140;11.488;2023-06-05T10:35:37;6.10;;;4.82;;
4430;SDS011;2228;48.140;11.488;2023-06-05T10:38:17;8.20;;;4.78;;
4430;SDS011;2228;48.140;11.488;2023-06-05T10:40:48;6.60;;;4.80;;
4430;SDS011;2228;48.140;11.488;2023-06-05T10:43:27;8.05;;;5.50;;
4430;SDS011;2228;48.140;11.488;2023-06-05T10:45:56;7.32;;;4.70;;
4430;SDS011;2228;48.140;11.488;2023-06-05T10:51:31;7.53;;;4.80;;
4430;SDS011;2228;48.140;11.488;2023-06-05T10:53:58;11.15;;;4.35;;
4430;SDS011;2228;48.140;11.488;2023-06-05T10:59:25;5.25;;;4.30;;
4430;SDS011;2228;48.140;11.488;2023-06-05T11:05:05;6.07;;;4.13;;
4430;SDS011;2228;48.140;11.488;2023-06-05T11:07:35;4.95;;;4.30;;
4430;SDS011;2228;48.140;11.488;2023-06-05T11:10:16;5.00;;;3.70;;
4430;SDS011;2228;48.140;11.488;2023-06-05T11:12:57;5.40;;;4.30;;
4430;SDS011;2228;48.140;11.488;2023-06-05T11:15:42;4.72;;;3.25;;
4430;SDS011;2228;48.140;11.488;2023-06-05T11:18:28;4.10;;;3.80;;
4430;SDS011;2228;48.140;11.488;2023-06-05T11:20:57;3.80;;;3.08;;
4430;SDS011;2228;48.140;11.488;2023-06-05T11:23:25;4.32;;;3.63;;
4430;SDS011;2228;48.140;11.488;2023-06-05T11:25:55;4.97;;;3.95;;
4430;SDS011;2228;48.140;11.488;2023-06-05T11:28:40;4.32;;;3.67;;
4430;SDS011;2228;48.140;11.488;2023-06-05T11:31:08;7.40;;;3.95;;
4430;SDS011;2228;48.140;11.488;2023-06-05T11:33:35;6.07;;;3.67;;
4430;SDS011;2228;48.140;11.488;2023-06-05T11:36:04;5.45;;;4.40;;
4430;SDS011;2228;48.140;11.488;2023-06-05T11:38:32;8.32;;;4.25;;
4430;SDS011;2228;48.140;11.488;2023-06-05T11:40:59;7.85;;;3.90;;
4430;SDS011;2228;48.140;11.488;2023-06-05T11:43:26;4.70;;;4.30;;
4430;SDS011;2228;48.140;11.488;2023-06-05T11:45:55;4.57;;;4.07;;
4430;SDS011;2228;48.140;11.488;2023-06-05T11:48:23;4.47;;;4.05;;
4430;SDS011;2228;48.140;11.488;2023-06-05T11:50:52;5.60;;;4.20;;
4430;SDS011;2228;48.140;11.488;2023-06-05T11:53:20;5.37;;;4.50;;
4430;SDS011;2228;48.140;11.488;2023-06-05T11:55:47;4.70;;;3.70;;
4430;SDS011;2228;48.140;11.488;2023-06-05T11:58:33;4.80;;;4.07;;
4430;SDS011;2228;48.140;11.488;2023-06-05T12:01:06;5.13;;;4.40;;
4430;SDS011;2228;48.140;11.488;2023-06-05T12:03:37;4.45;;;4.05;;
4430;SDS011;2228;48.140;11.488;2023-06-05T12:06:05;6.57;;;4.30;;
4430;SDS011;2228;48.140;11.488;2023-06-05T12:08:32;6.20;;;3.78;;
4430;SDS011;2228;48.140;11.488;2023-06-05T12:11:00;5.23;;;4.23;;
4430;SDS011;2228;48.140;11.488;2023-06-05T12:13:44;4.00;;;3.60;;
4430;SDS011;2228;48.140;11.488;2023-06-05T12:16:13;6.72;;;4.05;;
4430;SDS011;2228;48.140;11.488;2023-06-05T12:18:41;5.77;;;3.60;;
4430;SDS011;2228;48.140;11.488;2023-06-05T12:21:18;4.80;;;3.92;;
4430;SDS011;2228;48.140;11.488;2023-06-05T12:23:46;4.10;;;3.70;;
4430;SDS011;2228;48.140;11.488;2023-06-05T12:26:14;4.65;;;3.92;;
4430;SDS011;2228;48.140;11.488;2023-06-05T12:28:42;6.03;;;4.00;;
4430;SDS011;2228;48.140;11.488;2023-06-05T12:31:10;6.93;;;4.00;;
4430;SDS011;2228;48.140;11.488;2023-06-05T12:33:48;5.72;;;3.70;;
4430;SDS011;2228;48.140;11.488;2023-06-05T12:36:15;8.93;;;3.57;;
4430;SDS011;2228;48.140;11.488;2023-06-05T12:38:42;7.53;;;4.20;;
4430;SDS011;2228;48.140;11.488;2023-06-05T12:41:10;5.93;;;4.40;;
4430;SDS011;2228;48.140;11.488;2023-06-05T12:43:37;4.72;;;3.90;;
4430;SDS011;2228;48.140;11.488;2023-06-05T12:46:05;8.35;;;4.18;;
4430;SDS011;2228;48.140;11.488;2023-06-05T12:48:32;4.53;;;4.10;;
4430;SDS011;2228;48.140;11.488;2023-06-05T12:51:02;6.03;;;4.43;;
4430;SDS011;2228;48.140;11.488;2023-06-05T12:53:29;6.35;;;4.32;;
4430;SDS011;2228;48.140;11.488;2023-06-05T12:55:56;5.67;;;3.70;;
4430;SDS011;2228;48.140;11.488;2023-06-05T12:58:23;5.95;;;4.35;;
4430;SDS011;2228;48.140;11.488;2023-06-05T13:00:49;5.13;;;4.35;;
4430;SDS011;2228;48.140;11.488;2023-06-05T13:03:17;5.28;;;4.18;;
4430;SDS011;2228;48.140;11.488;2023-06-05T13:05:44;5.43;;;4.32;;
4430;SDS011;2228;48.140;11.488;2023-06-05T13:08:12;6.30;;;4.00;;
4430;SDS011;2228;48.140;11.488;2023-06-05T13:10:39;4.90;;;3.95;;
4430;SDS011;2228;48.140;11.488;2023-06-05T13:13:07;6.70;;;4.30;;
4430;SDS011;2228;48.140;11.488;2023-06-05T13:15:34;6.27;;;3.50;;
4430;SDS011;2228;48.140;11.488;2023-06-05T13:18:00;4.30;;;3.65;;
4430;SDS011;2228;48.140;11.488;2023-06-05T13:20:27;5.65;;;3.75;;
4430;SDS011;2228;48.140;11.488;2023-06-05T13:22:54;9.57;;;3.90;;
4430;SDS011;2228;48.140;11.488;2023-06-05T13:25:23;4.72;;;3.70;;
4430;SDS011;2228;48.140;11.488;2023-06-05T13:27:49;6.25;;;3.80;;
4430;SDS011;2228;48.140;11.488;2023-06-05T13:30:16;4.43;;;3.30;;
4430;SDS011;2228;48.140;11.488;2023-06-05T13:32:43;3.90;;;3.60;;
4430;SDS011;2228;48.140;11.488;2023-06-05T13:35:10;7.47;;;4.10;;
4430;SDS011;2228;48.140;11.488;2023-06-05T13:37:37;5.90;;;3.23;;
4430;SDS011;2228;48.140;11.488;2023-06-05T13:40:06;3.78;;;3.38;;
4430;SDS011;2228;48.140;11.488;2023-06-05T13:42:37;3.50;;;3.20;;
4430;SDS011;2228;48.140;11.488;2023-06-05T13:45:04;4.82;;;3.13;;
4430;SDS011;2228;48.140;11.488;2023-06-05T13:47:32;7.10;;;4.20;;
4430;SDS011;2228;48.140;11.488;2023-06-05T13:49:59;4.35;;;3.50;;
4430;SDS011;2228;48.140;11.488;2023-06-05T13:52:26;6.00;;;4.00;;
4430;SDS011;2228;48.140;11.488;2023-06-05T13:54:53;6.10;;;3.30;;
4430;SDS011;2228;48.140;11.488;2023-06-05T13:57:20;5.10;;;3.30;;
4430;SDS011;2228;48.140;11.488;2023-06-05T13:59:48;4.88;;;3.00;;
4430;SDS011;2228;48.140;11.488;2023-06-05T14:02:15;7.43;;;3.43;;
4430;SDS011;2228;48.140;11.488;2023-06-05T14:04:42;4.28;;;3.50;;
4430;SDS011;2228;48.140;11.488;2023-06-05T14:07:09;5.10;;;3.30;;
4430;SDS011;2228;48.140;11.488;2023-06-05T14:09:36;2.90;;;2.70;;
4430;SDS011;2228;48.140;11.488;2023-06-05T14:12:03;4.90;;;3.03;;
4430;SDS011;2228;48.140;11.488;2023-06-05T14:14:30;3.20;;;2.90;;
4430;SDS011;2228;48.140;11.488;2023-06-05T14:16:58;3.47;;;3.00;;
4430;SDS011;2228;48.140;11.488;2023-06-05T14:19:26;3.60;;;3.07;;
4430;SDS011;2228;48.140;11.488;2023-06-05T14:21:53;4.70;;;3.00;;
4430;SDS011;2228;48.140;11.488;2023-06-05T14:24:21;5.65;;;2.50;;
4430;SDS011;2228;48.140;11.488;2023-06-05T14:26:49;3.60;;;3.20;;
4430;SDS011;2228;48.140;11.488;2023-06-05T14:29:16;4.03;;;2.75;;
4430;SDS011;2228;48.140;11.488;2023-06-05T14:31:43;4.53;;;3.63;;
4430;SDS011;2228;48.140;11.488;2023-06-05T14:34:11;4.30;;;3.30;;
4430;SDS011;2228;48.140;11.488;2023-06-05T14:36:38;3.10;;;2.80;;
4430;SDS011;2228;48.140;11.488;2023-06-05T14:39:04;3.00;;;2.70;;
4430;SDS011;2228;48.140;11.488;2023-06-05T14:41:31;5.20;;;2.80;;
4430;SDS011;2228;48.140;11.488;2023-06-05T14:43:59;2.63;;;2.30;;
4430;SDS011;2228;48.140;11.488;2023-06-05T14:46:26;3.80;;;2.60;;
4430;SDS011;2228;48.140;11.488;2023-06-05T14:48:53;4.50;;;2.70;;
4430;SDS011;2228;48.140;11.488;2023-06-05T14:51:21;4.72;;;2.42;;
4430;SDS011;2228;48.140;11.488;2023-06-05T14:53:48;3.57;;;3.10;;
4430;SDS011;2228;48.140;11.488;2023-06-05T14:56:15;3.85;;;3.00;;
4430;SDS011;2228;48.140;11.488;2023-06-05T14:58:42;3.35;;;2.40;;
4430;SDS011;2228;48.140;11.488;2023-06-05T15:01:08;2.90;;;2.60;;
4430;SDS011;2228;48.140;11.488;2023-06-05T15:03:38;4.03;;;2.75;;
4430;SDS011;2228;48.140;11.488;2023-06-05T15:06:05;6.30;;;3.20;;
4430;SDS011;2228;48.140;11.488;2023-06-05T15:08:34;4.20;;;3.03;;
4430;SDS011;2228;48.140;11.488;2023-06-05T15:11:01;4.32;;;2.72;;
4430;SDS011;2228;48.140;11.488;2023-06-05T15:13:27;4.37;;;2.90;;
4430;SDS011;2228;48.140;11.488;2023-06-05T15:15:54;5.55;;;2.75;;
4430;SDS011;2228;48.140;11.488;2023-06-05T15:18:24;3.30;;;3.00;;
4430;SDS011;2228;48.140;11.488;2023-06-05T15:20:51;5.32;;;3.70;;
4430;SDS011;2228;48.140;11.488;2023-06-05T15:23:18;2.93;;;2.63;;